createdAt,value
2023-08-01T00:00:27.374Z,15.66
2023-08-01T00:02:53.981Z,15.70
2023-08-01T00:05:20.374Z,15.72
2023-08-01T00:07:46.751Z,15.83
2023-08-01T00:10:13.317Z,15.88
2023-08-01T00:12:40.106Z,15.84
2023-08-01T00:15:07.320Z,15.73
2023-08-01T00:17:33.867Z,15.69
2023-08-01T00:20:00.342Z,15.70
2023-08-01T00:22:27.049Z,15.70
2023-08-01T00:24:54.097Z,15.68
2023-08-01T00:27:20.492Z,15.82
2023-08-01T00:29:46.905Z,15.83
2023-08-01T00:32:13.440Z,15.84
2023-08-01T00:34:40.157Z,15.81
2023-08-01T00:37:08.841Z,15.80
2023-08-01T00:39:35.229Z,15.74
2023-08-01T00:42:01.605Z,15.71
2023-08-01T00:44:28.021Z,15.54
2023-08-01T00:46:54.646Z,15.56
2023-08-01T00:49:21.248Z,15.57
2023-08-01T00:51:48.531Z,15.55
2023-08-01T00:54:15.447Z,15.52
2023-08-01T00:56:42.268Z,15.30
2023-08-01T00:59:08.810Z,15.18
2023-08-01T01:01:35.300Z,15.12
2023-08-01T01:04:01.894Z,15.12
2023-08-01T01:06:34.245Z,15.11
2023-08-01T01:09:01.638Z,15.05
2023-08-01T01:11:27.994Z,15.04
2023-08-01T01:13:54.553Z,14.97
2023-08-01T01:16:21.589Z,14.95
2023-08-01T01:18:47.995Z,14.95
2023-08-01T01:21:14.396Z,14.95
2023-08-01T01:23:41.552Z,15.01
2023-08-01T01:26:10.374Z,15.03
2023-08-01T01:28:38.486Z,15.01
2023-08-01T01:31:05.101Z,15.07
2023-08-01T01:33:31.733Z,14.98
2023-08-01T01:35:58.288Z,14.97
2023-08-01T01:38:24.948Z,14.95
2023-08-01T01:40:51.316Z,14.94
2023-08-01T01:43:17.711Z,14.97
2023-08-01T01:45:44.038Z,15.03
2023-08-01T01:48:10.383Z,15.06
2023-08-01T01:50:36.838Z,15.17
2023-08-01T01:53:03.476Z,15.12
2023-08-01T01:55:30.072Z,15.16
2023-08-01T01:57:56.676Z,15.09
2023-08-01T02:00:23.031Z,15.09
2023-08-01T02:02:49.499Z,15.09
2023-08-01T02:05:16.320Z,15.18
2023-08-01T02:07:42.701Z,15.18
2023-08-01T02:10:09.499Z,15.14
2023-08-01T02:12:36.738Z,15.12
2023-08-01T02:15:03.767Z,15.10
2023-08-01T02:17:30.741Z,15.12
2023-08-01T02:19:57.435Z,15.15
2023-08-01T02:22:25.880Z,15.14
2023-08-01T02:24:52.462Z,15.17
2023-08-01T02:27:19.014Z,15.15
2023-08-01T02:29:45.613Z,15.12
2023-08-01T02:32:12.076Z,15.05
2023-08-01T02:34:38.484Z,15.08
2023-08-01T02:37:06.648Z,15.12
2023-08-01T02:39:33.038Z,15.04
2023-08-01T02:41:59.452Z,15.02
2023-08-01T02:44:26.827Z,15.06
2023-08-01T02:46:53.700Z,15.03
2023-08-01T02:49:20.216Z,15.00
2023-08-01T02:51:46.853Z,15.10
2023-08-01T02:54:13.293Z,15.06
2023-08-01T02:56:42.892Z,15.16
2023-08-01T02:59:09.671Z,15.11
2023-08-01T03:01:37.241Z,15.08
2023-08-01T03:04:08.055Z,15.26
2023-08-01T03:06:34.772Z,15.31
2023-08-01T03:09:01.921Z,15.32
2023-08-01T03:11:28.433Z,15.31
2023-08-01T03:13:55.026Z,15.23
2023-08-01T03:16:21.651Z,15.34
2023-08-01T03:18:48.326Z,15.32
2023-08-01T03:21:15.034Z,15.33
2023-08-01T03:23:41.498Z,15.38
2023-08-01T03:26:07.982Z,15.34
2023-08-01T03:28:34.694Z,15.38
2023-08-01T03:31:01.243Z,15.47
2023-08-01T03:33:27.926Z,15.41
2023-08-01T03:35:54.559Z,15.34
2023-08-01T03:38:21.125Z,15.29
2023-08-01T03:40:47.777Z,15.32
2023-08-01T03:43:14.418Z,15.34
2023-08-01T03:45:41.208Z,15.38
2023-08-01T03:48:07.988Z,15.42
2023-08-01T03:50:34.365Z,15.48
2023-08-01T03:53:00.957Z,15.36
2023-08-01T03:55:27.348Z,15.38
2023-08-01T03:57:53.678Z,15.38
2023-08-01T04:00:20.168Z,15.46
2023-08-01T04:02:48.958Z,15.44
2023-08-01T04:05:16.055Z,15.46
2023-08-01T04:07:42.975Z,15.46
2023-08-01T04:10:09.845Z,15.57
2023-08-01T04:12:36.407Z,15.51
2023-08-01T04:15:02.798Z,15.48
2023-08-01T04:17:30.701Z,15.50
2023-08-01T04:19:57.708Z,15.46
2023-08-01T04:22:24.302Z,15.53
2023-08-01T04:24:51.425Z,15.45
2023-08-01T04:27:18.082Z,15.57
2023-08-01T04:29:44.590Z,15.47
2023-08-01T04:32:13.863Z,15.45
2023-08-01T04:34:40.913Z,15.56
2023-08-01T04:37:07.559Z,15.60
2023-08-01T04:39:34.609Z,15.56
2023-08-01T04:42:03.605Z,15.50
2023-08-01T04:44:30.877Z,15.45
2023-08-01T04:46:57.588Z,15.55
2023-08-01T04:49:25.319Z,15.60
2023-08-01T04:51:52.198Z,15.60
2023-08-01T04:54:18.537Z,15.47
2023-08-01T04:56:45.143Z,15.43
2023-08-01T04:59:11.590Z,15.57
2023-08-01T05:01:38.224Z,15.67
2023-08-01T05:04:04.668Z,15.59
2023-08-01T05:06:31.347Z,15.59
2023-08-01T05:08:57.781Z,15.66
2023-08-01T05:11:24.191Z,15.64
2023-08-01T05:13:50.630Z,15.60
2023-08-01T05:16:17.289Z,15.66
2023-08-01T05:18:43.930Z,15.65
2023-08-01T05:21:10.256Z,15.59
2023-08-01T05:23:36.659Z,15.56
2023-08-01T05:26:03.072Z,15.64
2023-08-01T05:28:29.533Z,15.68
2023-08-01T05:30:56.042Z,15.73
2023-08-01T05:33:22.558Z,15.63
2023-08-01T05:35:50.223Z,15.61
2023-08-01T05:38:17.062Z,15.50
2023-08-01T05:40:43.618Z,15.58
2023-08-01T05:43:10.117Z,15.65
2023-08-01T05:45:36.755Z,15.65
2023-08-01T05:48:03.657Z,15.67
2023-08-01T05:50:30.074Z,15.71
2023-08-01T05:52:56.778Z,15.79
2023-08-01T05:55:23.257Z,15.79
2023-08-01T05:57:53.432Z,15.78
2023-08-01T06:00:22.657Z,15.81
2023-08-01T06:02:49.196Z,15.80
2023-08-01T06:05:16.108Z,15.77
2023-08-01T06:07:42.661Z,15.84
2023-08-01T06:10:09.414Z,15.83
2023-08-01T06:12:36.502Z,15.82
2023-08-01T06:15:03.577Z,15.82
2023-08-01T06:17:30.232Z,15.79
2023-08-01T06:19:56.939Z,15.69
2023-08-01T06:22:23.467Z,15.74
2023-08-01T06:24:49.899Z,15.68
2023-08-01T06:27:16.413Z,15.59
2023-08-01T06:29:43.115Z,15.64
2023-08-01T06:32:09.546Z,15.72
2023-08-01T06:34:36.681Z,15.72
2023-08-01T06:37:03.290Z,15.70
2023-08-01T06:39:29.672Z,15.84
2023-08-01T06:41:56.538Z,16.00
2023-08-01T06:44:23.291Z,15.95
2023-08-01T06:46:49.734Z,15.89
2023-08-01T06:49:16.424Z,15.95
2023-08-01T06:51:43.849Z,16.07
2023-08-01T06:54:10.248Z,16.20
2023-08-01T06:56:36.721Z,16.27
2023-08-01T06:59:03.300Z,16.25
2023-08-01T07:01:29.792Z,16.30
2023-08-01T07:03:57.672Z,16.11
2023-08-01T07:06:25.175Z,15.90
2023-08-01T07:08:51.612Z,15.85
2023-08-01T07:11:18.036Z,15.87
2023-08-01T07:13:44.351Z,15.80
2023-08-01T07:16:10.900Z,15.78
2023-08-01T07:18:37.330Z,15.76
2023-08-01T07:21:05.294Z,15.77
2023-08-01T07:23:34.554Z,15.93
2023-08-01T07:26:00.960Z,16.08
2023-08-01T07:28:27.593Z,16.16
2023-08-01T07:31:07.937Z,16.01
2023-08-01T07:33:35.641Z,16.01
2023-08-01T07:36:02.606Z,16.06
2023-08-01T07:38:29.288Z,16.23
2023-08-01T07:40:56.809Z,16.34
2023-08-01T07:43:24.464Z,16.45
2023-08-01T07:45:51.880Z,16.45
2023-08-01T07:48:18.631Z,16.54
2023-08-01T07:50:45.126Z,16.49
2023-08-01T07:53:11.737Z,16.23
2023-08-01T07:55:38.203Z,16.34
2023-08-01T07:58:05.250Z,16.27
2023-08-01T08:00:32.768Z,16.35
2023-08-01T08:02:59.232Z,16.49
2023-08-01T08:05:27.984Z,16.47
2023-08-01T08:07:54.330Z,16.58
2023-08-01T08:10:20.910Z,16.36
2023-08-01T08:12:47.410Z,16.33
2023-08-01T08:15:14.844Z,16.36
2023-08-01T08:17:41.501Z,16.41
2023-08-01T08:20:08.614Z,16.66
2023-08-01T08:22:35.241Z,17.02
2023-08-01T08:25:01.857Z,16.94
2023-08-01T08:27:28.501Z,16.98
2023-08-01T08:29:56.237Z,17.02
2023-08-01T08:32:22.863Z,16.82
2023-08-01T08:34:49.378Z,16.81
2023-08-01T08:37:15.806Z,17.23
2023-08-01T08:39:42.432Z,17.53
2023-08-01T08:42:09.113Z,17.40
2023-08-01T08:44:43.232Z,17.41
2023-08-01T08:47:12.072Z,17.59
2023-08-01T08:49:39.809Z,17.62
2023-08-01T08:52:07.026Z,17.60
2023-08-01T08:54:33.853Z,17.39
2023-08-01T08:57:00.885Z,17.42
2023-08-01T08:59:28.356Z,17.58
2023-08-01T09:01:55.071Z,17.54
2023-08-01T09:04:21.565Z,17.46
2023-08-01T09:06:52.635Z,17.57
2023-08-01T09:09:19.375Z,17.91
2023-08-01T09:11:50.058Z,17.91
2023-08-01T09:14:17.503Z,17.79
2023-08-01T09:16:45.007Z,18.05
2023-08-01T09:19:14.135Z,18.16
2023-08-01T09:21:40.736Z,18.15
2023-08-01T09:24:15.059Z,17.86
2023-08-01T09:26:42.467Z,17.89
2023-08-01T09:29:09.317Z,17.69
2023-08-01T09:31:40.144Z,17.53
2023-08-01T09:34:19.841Z,17.40
2023-08-01T09:36:46.448Z,17.26
2023-08-01T09:39:19.120Z,17.34
2023-08-01T09:41:45.637Z,16.99
2023-08-01T09:44:21.145Z,16.94
2023-08-01T09:47:04.716Z,16.84
2023-08-01T09:49:32.167Z,16.88
2023-08-01T09:51:59.498Z,16.72
2023-08-01T09:54:26.239Z,16.82
2023-08-01T09:56:54.825Z,16.81
2023-08-01T09:59:23.724Z,17.13
2023-08-01T10:01:52.083Z,17.54
2023-08-01T10:04:27.556Z,17.99
2023-08-01T10:07:06.702Z,18.13
2023-08-01T10:09:35.912Z,18.32
2023-08-01T10:12:04.036Z,18.56
2023-08-01T10:14:32.888Z,18.42
2023-08-01T10:16:59.606Z,18.26
2023-08-01T10:19:27.579Z,18.08
2023-08-01T10:21:56.275Z,18.20
2023-08-01T10:24:25.573Z,18.12
2023-08-01T10:26:51.907Z,18.18
2023-08-01T10:29:18.644Z,18.28
2023-08-01T10:31:55.875Z,18.31
2023-08-01T10:34:25.347Z,18.48
2023-08-01T10:36:56.567Z,18.52
2023-08-01T10:39:24.306Z,18.50
2023-08-01T10:42:01.653Z,18.65
2023-08-01T10:44:28.876Z,18.64
2023-08-01T10:46:57.761Z,18.73
2023-08-01T10:49:41.537Z,18.53
2023-08-01T10:52:24.552Z,18.38
2023-08-01T10:55:00.216Z,18.28
2023-08-01T10:57:32.002Z,18.04
2023-08-01T10:59:59.891Z,17.87
2023-08-01T11:02:28.279Z,17.67
2023-08-01T11:04:58.500Z,17.51
2023-08-01T11:07:25.355Z,17.44
2023-08-01T11:10:07.302Z,17.46
2023-08-01T11:12:42.217Z,17.42
2023-08-01T11:15:11.672Z,17.37
2023-08-01T11:17:39.815Z,17.30
2023-08-01T11:20:11.742Z,17.35
2023-08-01T11:22:49.808Z,17.18
2023-08-01T11:25:16.335Z,17.10
2023-08-01T11:27:43.255Z,17.03
2023-08-01T11:30:10.160Z,16.91
2023-08-01T11:32:38.015Z,16.88
2023-08-01T11:35:05.190Z,16.73
2023-08-01T11:37:33.526Z,16.48
2023-08-01T11:40:00.341Z,16.37
2023-08-01T11:42:32.325Z,16.21
2023-08-01T11:45:09.449Z,15.81
2023-08-01T11:47:36.005Z,15.70
2023-08-01T11:50:02.997Z,15.56
2023-08-01T11:52:30.115Z,15.42
2023-08-01T11:54:56.680Z,15.36
2023-08-01T11:57:23.350Z,15.37
2023-08-01T11:59:51.294Z,15.32
2023-08-01T12:02:27.900Z,15.29
2023-08-01T12:04:55.271Z,15.08
2023-08-01T12:07:22.217Z,15.08
2023-08-01T12:09:57.557Z,15.22
2023-08-01T12:12:24.455Z,15.34
2023-08-01T12:14:50.978Z,15.42
2023-08-01T12:17:17.393Z,15.50
2023-08-01T12:19:44.106Z,15.66
2023-08-01T12:22:10.638Z,15.80
2023-08-01T12:24:38.839Z,15.88
2023-08-01T12:27:09.496Z,16.26
2023-08-01T12:29:36.556Z,16.67
2023-08-01T12:32:07.870Z,16.87
2023-08-01T12:34:35.324Z,17.09
2023-08-01T12:37:01.659Z,17.25
2023-08-01T12:39:28.156Z,17.56
2023-08-01T12:41:55.226Z,17.61
2023-08-01T12:44:22.243Z,17.65
2023-08-01T12:46:48.814Z,17.46
2023-08-01T12:49:15.395Z,17.40
2023-08-01T12:51:42.046Z,17.39
2023-08-01T12:54:08.462Z,17.42
2023-08-01T12:56:34.883Z,17.26
2023-08-01T12:59:01.467Z,17.29
2023-08-01T13:01:27.905Z,16.99
2023-08-01T13:03:54.655Z,17.07
2023-08-01T13:06:21.320Z,17.07
2023-08-01T13:08:47.812Z,16.96
2023-08-01T13:11:15.897Z,16.84
2023-08-01T13:13:43.031Z,16.83
2023-08-01T13:16:10.310Z,16.94
2023-08-01T13:18:37.384Z,16.82
2023-08-01T13:21:04.601Z,16.77
2023-08-01T13:23:31.261Z,16.76
2023-08-01T13:25:59.718Z,16.71
2023-08-01T13:28:26.112Z,16.72
2023-08-01T13:30:52.579Z,16.71
2023-08-01T13:33:19.284Z,16.56
2023-08-01T13:35:45.691Z,16.43
2023-08-01T13:38:13.917Z,16.40
2023-08-01T13:40:40.511Z,16.50
2023-08-01T13:43:06.968Z,16.51
2023-08-01T13:45:33.629Z,16.66
2023-08-01T13:48:00.098Z,16.57
2023-08-01T13:50:27.908Z,16.56
2023-08-01T13:52:54.681Z,16.69
2023-08-01T13:55:21.634Z,16.70
2023-08-01T13:57:48.140Z,16.71
2023-08-01T14:00:15.076Z,16.68
2023-08-01T14:02:41.738Z,16.75
2023-08-01T14:05:09.489Z,16.90
2023-08-01T14:07:39.736Z,16.90
2023-08-01T14:10:08.558Z,16.83
2023-08-01T14:12:34.937Z,16.58
2023-08-01T14:15:01.695Z,16.63
2023-08-01T14:17:28.385Z,16.59
2023-08-01T14:19:54.828Z,16.59
2023-08-01T14:22:21.504Z,16.59
2023-08-01T14:24:48.050Z,16.66
2023-08-01T14:27:14.975Z,16.58
2023-08-01T14:29:42.016Z,16.58
2023-08-01T14:32:08.784Z,16.53
2023-08-01T14:34:35.238Z,16.60
2023-08-01T14:37:01.673Z,16.66
2023-08-01T14:39:28.398Z,17.00
2023-08-01T14:42:05.107Z,17.31
2023-08-01T14:44:32.707Z,17.71
2023-08-01T14:46:59.118Z,18.06
2023-08-01T14:49:28.676Z,18.02
2023-08-01T14:51:55.382Z,17.84
2023-08-01T14:54:37.820Z,17.96
2023-08-01T14:57:07.394Z,18.09
2023-08-01T14:59:33.923Z,17.86
2023-08-01T15:02:00.325Z,17.79
2023-08-01T15:04:27.991Z,17.97
2023-08-01T15:06:54.918Z,18.16
2023-08-01T15:09:21.408Z,18.28
2023-08-01T15:11:48.043Z,18.02
2023-08-01T15:14:14.689Z,17.84
2023-08-01T15:16:41.296Z,17.89
2023-08-01T15:19:08.171Z,17.96
2023-08-01T15:21:34.501Z,18.06
2023-08-01T15:24:01.347Z,18.40
2023-08-01T15:26:27.844Z,18.10
2023-08-01T15:28:54.256Z,17.85
2023-08-01T15:31:20.885Z,17.75
2023-08-01T15:33:47.645Z,17.41
2023-08-01T15:36:14.137Z,17.21
2023-08-01T15:38:40.688Z,17.14
2023-08-01T15:41:10.375Z,17.10
2023-08-01T15:43:38.797Z,17.16
2023-08-01T15:46:06.529Z,17.09
2023-08-01T15:48:37.180Z,17.08
2023-08-01T15:51:05.752Z,16.87
2023-08-01T15:53:32.766Z,16.66
2023-08-01T15:56:02.721Z,16.54
2023-08-01T15:58:32.199Z,16.59
2023-08-01T16:00:59.468Z,16.63
2023-08-01T16:03:26.860Z,16.53
2023-08-01T16:05:55.998Z,16.62
2023-08-01T16:08:22.867Z,16.72
2023-08-01T16:10:49.327Z,16.78
2023-08-01T16:13:15.697Z,16.91
2023-08-01T16:15:42.700Z,16.84
2023-08-01T16:18:09.680Z,16.86
2023-08-01T16:20:36.292Z,17.00
2023-08-01T16:23:03.002Z,17.17
2023-08-01T16:25:29.523Z,17.29
2023-08-01T16:27:55.930Z,17.23
2023-08-01T16:30:22.577Z,17.22
2023-08-01T16:32:49.109Z,17.29
2023-08-01T16:35:15.556Z,17.41
2023-08-01T16:37:44.916Z,17.37
2023-08-01T16:40:11.779Z,17.33
2023-08-01T16:42:38.547Z,17.24
2023-08-01T16:45:09.888Z,17.26
2023-08-01T16:47:42.939Z,17.25
2023-08-01T16:50:20.876Z,17.13
2023-08-01T16:52:48.105Z,17.12
2023-08-01T16:55:15.550Z,17.12
2023-08-01T16:57:42.210Z,17.05
2023-08-01T17:00:10.236Z,17.07
2023-08-01T17:02:37.718Z,17.06
2023-08-01T17:05:05.286Z,17.04
2023-08-01T17:07:32.171Z,17.05
2023-08-01T17:10:01.890Z,17.05
2023-08-01T17:12:28.319Z,17.03
2023-08-01T17:14:54.673Z,17.13
2023-08-01T17:17:21.085Z,17.20
2023-08-01T17:19:48.976Z,17.23
2023-08-01T17:22:16.437Z,17.20
2023-08-01T17:24:44.397Z,17.08
2023-08-01T17:27:10.783Z,17.20
2023-08-01T17:29:37.328Z,17.33
2023-08-01T17:32:04.343Z,17.30
2023-08-01T17:34:32.840Z,17.29
2023-08-01T17:36:59.378Z,17.24
2023-08-01T17:39:26.164Z,17.14
2023-08-01T17:41:54.534Z,17.20
2023-08-01T17:44:21.047Z,17.14
2023-08-01T17:46:49.840Z,17.10
2023-08-01T17:49:16.213Z,17.10
2023-08-01T17:51:42.591Z,17.18
2023-08-01T17:54:08.944Z,17.12
2023-08-01T17:56:35.504Z,17.02
2023-08-01T17:59:01.910Z,17.05
2023-08-01T18:01:30.085Z,17.01
2023-08-01T18:03:58.153Z,16.91
2023-08-01T18:06:24.829Z,16.77
2023-08-01T18:08:51.387Z,16.84
2023-08-01T18:11:18.778Z,16.60
2023-08-01T18:13:49.020Z,16.63
2023-08-01T18:16:22.842Z,16.65
2023-08-01T18:18:49.872Z,16.54
2023-08-01T18:21:16.388Z,16.32
2023-08-01T18:23:42.933Z,16.21
2023-08-01T18:26:21.138Z,16.13
2023-08-01T18:28:48.373Z,16.09
2023-08-01T18:31:16.434Z,16.01
2023-08-01T18:33:43.115Z,15.92
2023-08-01T18:36:14.951Z,15.87
2023-08-01T18:38:42.825Z,15.77
2023-08-01T18:41:09.414Z,15.75
2023-08-01T18:43:37.503Z,15.81
2023-08-01T18:46:08.070Z,15.77
2023-08-01T18:48:35.491Z,15.79
2023-08-01T18:51:10.998Z,15.71
2023-08-01T18:53:37.714Z,15.62
2023-08-01T18:56:13.074Z,15.58
2023-08-01T18:58:41.676Z,15.57
2023-08-01T19:01:23.853Z,15.48
2023-08-01T19:03:55.739Z,15.47
2023-08-01T19:06:27.161Z,15.40
2023-08-01T19:09:05.688Z,15.45
2023-08-01T19:11:43.822Z,15.47
2023-08-01T19:14:10.539Z,15.43
2023-08-01T19:16:37.544Z,15.37
2023-08-01T19:19:04.025Z,15.42
2023-08-01T19:21:30.845Z,15.47
2023-08-01T19:23:57.500Z,15.38
2023-08-01T19:26:24.252Z,15.35
2023-08-01T19:28:50.641Z,15.38
2023-08-01T19:31:17.233Z,15.40
2023-08-01T19:33:44.716Z,15.35
2023-08-01T19:36:11.127Z,15.21
2023-08-01T19:38:37.641Z,15.25
2023-08-01T19:41:04.853Z,15.25
2023-08-01T19:43:31.492Z,15.27
2023-08-01T19:45:58.557Z,15.23
2023-08-01T19:48:25.196Z,15.28
2023-08-01T19:50:55.281Z,15.22
2023-08-01T19:53:24.676Z,15.18
2023-08-01T19:55:52.497Z,15.21
2023-08-01T19:58:19.210Z,15.21
2023-08-01T20:00:45.985Z,15.27
2023-08-01T20:03:12.813Z,15.30
2023-08-01T20:05:39.414Z,15.22
2023-08-01T20:08:06.045Z,15.24
2023-08-01T20:10:32.450Z,15.23
2023-08-01T20:12:59.087Z,15.22
2023-08-01T20:15:25.485Z,15.24
2023-08-01T20:17:52.102Z,15.05
2023-08-01T20:20:18.774Z,15.07
2023-08-01T20:22:45.170Z,15.13
2023-08-01T20:25:12.073Z,15.10
2023-08-01T20:27:38.544Z,14.97
2023-08-01T20:30:05.452Z,15.01
2023-08-01T20:32:31.843Z,15.00
2023-08-01T20:34:58.284Z,14.95
2023-08-01T20:37:24.753Z,14.99
2023-08-01T20:39:51.146Z,14.98
2023-08-01T20:42:18.752Z,14.83
2023-08-01T20:44:45.135Z,14.85
2023-08-01T20:47:11.532Z,14.87
2023-08-01T20:49:37.902Z,14.84
2023-08-01T20:52:05.059Z,14.83
2023-08-01T20:54:31.454Z,14.81
2023-08-01T20:56:58.067Z,14.78
2023-08-01T20:59:24.762Z,14.77
2023-08-01T21:01:51.477Z,14.77
2023-08-01T21:04:18.056Z,14.76
2023-08-01T21:06:44.761Z,14.69
2023-08-01T21:09:12.534Z,14.69
2023-08-01T21:11:38.934Z,14.73
2023-08-01T21:14:05.380Z,14.73
2023-08-01T21:16:31.875Z,14.75
2023-08-01T21:18:58.191Z,14.77
2023-08-01T21:21:25.928Z,14.84
2023-08-01T21:23:52.766Z,14.83
2023-08-01T21:26:19.581Z,14.78
2023-08-01T21:28:45.924Z,14.75
2023-08-01T21:31:13.747Z,14.66
2023-08-01T21:33:40.669Z,14.63
2023-08-01T21:36:07.084Z,14.70
2023-08-01T21:38:35.127Z,14.72
2023-08-01T21:41:01.599Z,14.64
2023-08-01T21:43:28.037Z,14.67
2023-08-01T21:45:55.924Z,14.62
2023-08-01T21:48:22.623Z,14.68
2023-08-01T21:50:51.149Z,14.61
2023-08-01T21:53:18.453Z,14.62
2023-08-01T21:55:48.942Z,14.59
2023-08-01T21:58:16.432Z,14.52
2023-08-01T22:00:46.768Z,14.63
2023-08-01T22:03:14.136Z,14.59
2023-08-01T22:05:41.353Z,14.61
2023-08-01T22:08:08.686Z,14.63
2023-08-01T22:10:35.660Z,14.64
2023-08-01T22:13:02.602Z,14.60
2023-08-01T22:15:30.018Z,14.59
2023-08-01T22:17:58.058Z,14.57
2023-08-01T22:20:25.104Z,14.64
2023-08-01T22:22:51.508Z,14.58
2023-08-01T22:25:18.358Z,14.62
2023-08-01T22:27:44.817Z,14.66
2023-08-01T22:30:11.949Z,14.70
2023-08-01T22:32:38.755Z,14.74
2023-08-01T22:35:05.785Z,14.71
2023-08-01T22:37:32.513Z,14.71
2023-08-01T22:39:59.170Z,14.70
2023-08-01T22:42:25.730Z,14.65
2023-08-01T22:44:52.126Z,14.68
2023-08-01T22:47:18.523Z,14.64
2023-08-01T22:49:54.707Z,14.77
2023-08-01T22:52:30.362Z,14.65
2023-08-01T22:54:56.699Z,14.68
2023-08-01T22:57:23.048Z,14.65
2023-08-01T22:59:49.756Z,14.66
2023-08-01T23:02:16.277Z,14.64
2023-08-01T23:04:42.883Z,14.70
2023-08-01T23:07:09.741Z,14.65
2023-08-01T23:09:36.166Z,14.70
2023-08-01T23:12:02.851Z,14.67
2023-08-01T23:14:29.275Z,14.70
2023-08-01T23:16:56.012Z,14.65
2023-08-01T23:19:22.541Z,14.72
2023-08-01T23:21:48.938Z,14.67
2023-08-01T23:24:15.359Z,14.70
2023-08-01T23:26:42.029Z,14.67
2023-08-01T23:29:08.812Z,14.65
2023-08-01T23:31:35.254Z,14.69
2023-08-01T23:34:02.090Z,14.63
2023-08-01T23:36:28.421Z,14.65
2023-08-01T23:38:54.867Z,14.67
2023-08-01T23:41:22.235Z,14.73
2023-08-01T23:43:48.655Z,14.75
2023-08-01T23:46:15.073Z,14.73
2023-08-01T23:48:43.065Z,14.67
2023-08-01T23:51:16.648Z,14.64
2023-08-01T23:53:43.152Z,14.67
2023-08-01T23:56:09.520Z,14.65
2023-08-01T23:58:36.766Z,14.73
